sensor_id;sensor_type;location;lat;lon;timestamp;pressure;altitude;pressure_sealevel;temperature;humidity
84122;BME280;74217;51.106;17.084;2024-01-30T00:01:19;101922.88;;;0.60;69.42
84122;BME280;74217;51.106;17.084;2024-01-30T00:04:04;101927.16;;;0.60;69.44
84122;BME280;74217;51.106;17.084;2024-01-30T00:06:48;101921.84;;;0.54;69.86
84122;BME280;74217;51.106;17.084;2024-01-30T00:09:33;101925.28;;;0.53;70.38
84122;BME280;74217;51.106;17.084;2024-01-30T00:12:18;101926.88;;;0.48;70.12
84122;BME280;74217;51.106;17.084;2024-01-30T00:15:03;101926.72;;;0.42;69.94
84122;BME280;74217;51.106;17.084;2024-01-30T00:17:49;101934.50;;;0.42;70.60
84122;BME280;74217;51.106;17.084;2024-01-30T00:20:37;101921.56;;;0.42;70.27
84122;BME280;74217;51.106;17.084;2024-01-30T00:23:21;101923.25;;;0.40;70.26
84122;BME280;74217;51.106;17.084;2024-01-30T00:26:06;101921.44;;;0.37;70.72
84122;BME280;74217;51.106;17.084;2024-01-30T00:28:51;101931.75;;;0.36;70.91
84122;BME280;74217;51.106;17.084;2024-01-30T00:31:36;101931.84;;;0.39;70.32
84122;BME280;74217;51.106;17.084;2024-01-30T00:34:20;101932.75;;;0.41;69.92
84122;BME280;74217;51.106;17.084;2024-01-30T00:37:06;101933.59;;;0.40;70.48
84122;BME280;74217;51.106;17.084;2024-01-30T00:39:50;101927.38;;;0.33;70.69
84122;BME280;74217;51.106;17.084;2024-01-30T00:42:35;101927.38;;;0.32;70.73
84122;BME280;74217;51.106;17.084;2024-01-30T00:45:20;101921.25;;;0.30;70.27
84122;BME280;74217;51.106;17.084;2024-01-30T00:48:05;101929.06;;;0.31;70.10
84122;BME280;74217;51.106;17.084;2024-01-30T00:50:50;101925.63;;;0.32;69.50
84122;BME280;74217;51.106;17.084;2024-01-30T00:53:35;101921.94;;;0.23;70.69
84122;BME280;74217;51.106;17.084;2024-01-30T00:56:19;101926.22;;;0.21;70.82
84122;BME280;74217;51.106;17.084;2024-01-30T00:59:05;101936.47;;;0.18;70.80
84122;BME280;74217;51.106;17.084;2024-01-30T01:01:49;101927.75;;;0.13;70.85
84122;BME280;74217;51.106;17.084;2024-01-30T01:04:34;101928.31;;;0.01;71.83
84122;BME280;74217;51.106;17.084;2024-01-30T01:07:19;101904.00;;;-0.05;71.62
84122;BME280;74217;51.106;17.084;2024-01-30T01:10:05;101917.81;;;-0.05;71.73
84122;BME280;74217;51.106;17.084;2024-01-30T01:12:50;101931.03;;;0.06;71.09
84122;BME280;74217;51.106;17.084;2024-01-30T01:15:35;101941.38;;;0.06;71.06
84122;BME280;74217;51.106;17.084;2024-01-30T01:18:19;101932.63;;;0.02;71.04
84122;BME280;74217;51.106;17.084;2024-01-30T01:21:05;101930.72;;;-0.06;71.31
84122;BME280;74217;51.106;17.084;2024-01-30T01:23:49;101935.75;;;-0.11;71.78
84122;BME280;74217;51.106;17.084;2024-01-30T01:26:34;101931.31;;;-0.16;72.06
84122;BME280;74217;51.106;17.084;2024-01-30T01:29:19;101926.13;;;-0.16;72.45
84122;BME280;74217;51.106;17.084;2024-01-30T01:32:06;101928.72;;;-0.16;72.01
84122;BME280;74217;51.106;17.084;2024-01-30T01:34:50;101931.25;;;-0.19;72.54
84122;BME280;74217;51.106;17.084;2024-01-30T01:37:35;101930.41;;;-0.18;72.09
84122;BME280;74217;51.106;17.084;2024-01-30T01:40:22;101924.38;;;-0.17;72.43
84122;BME280;74217;51.106;17.084;2024-01-30T01:43:07;101920.97;;;-0.16;72.23
84122;BME280;74217;51.106;17.084;2024-01-30T01:45:52;101921.97;;;-0.11;71.88
84122;BME280;74217;51.106;17.084;2024-01-30T01:48:37;101908.09;;;-0.13;71.79
84122;BME280;74217;51.106;17.084;2024-01-30T01:51:24;101903.59;;;-0.22;72.23
84122;BME280;74217;51.106;17.084;2024-01-30T01:54:12;101924.50;;;-0.13;71.85
84122;BME280;74217;51.106;17.084;2024-01-30T01:56:59;101921.06;;;-0.12;72.24
84122;BME280;74217;51.106;17.084;2024-01-30T01:59:44;101915.84;;;-0.13;72.00
84122;BME280;74217;51.106;17.084;2024-01-30T02:02:30;101919.53;;;-0.05;71.37
84122;BME280;74217;51.106;17.084;2024-01-30T02:05:21;101915.09;;;-0.09;71.63
84122;BME280;74217;51.106;17.084;2024-01-30T02:08:06;101914.00;;;-0.19;72.48
84122;BME280;74217;51.106;17.084;2024-01-30T02:10:52;101912.28;;;-0.18;72.45
84122;BME280;74217;51.106;17.084;2024-01-30T02:13:37;101923.22;;;-0.28;73.66
84122;BME280;74217;51.106;17.084;2024-01-30T02:16:22;101909.28;;;-0.33;73.29
84122;BME280;74217;51.106;17.084;2024-01-30T02:19:06;101914.75;;;-0.23;73.37
84122;BME280;74217;51.106;17.084;2024-01-30T02:21:52;101900.63;;;-0.35;73.68
84122;BME280;74217;51.106;17.084;2024-01-30T02:24:37;101911.97;;;-0.30;74.07
84122;BME280;74217;51.106;17.084;2024-01-30T02:27:21;101905.38;;;-0.19;73.28
84122;BME280;74217;51.106;17.084;2024-01-30T02:30:07;101897.75;;;-0.13;73.38
84122;BME280;74217;51.106;17.084;2024-01-30T02:32:52;101894.50;;;-0.06;73.01
84122;BME280;74217;51.106;17.084;2024-01-30T02:35:37;101904.91;;;-0.03;73.02
84122;BME280;74217;51.106;17.084;2024-01-30T02:38:22;101898.00;;;-0.04;72.59
84122;BME280;74217;51.106;17.084;2024-01-30T02:41:07;101899.69;;;-0.06;72.15
84122;BME280;74217;51.106;17.084;2024-01-30T02:43:53;101902.13;;;-0.12;72.52
84122;BME280;74217;51.106;17.084;2024-01-30T02:46:37;101901.13;;;-0.17;72.25
84122;BME280;74217;51.106;17.084;2024-01-30T02:49:22;101904.53;;;-0.18;72.61
84122;BME280;74217;51.106;17.084;2024-01-30T02:52:07;101897.63;;;-0.19;73.20
84122;BME280;74217;51.106;17.084;2024-01-30T02:54:51;101899.44;;;-0.15;73.34
84122;BME280;74217;51.106;17.084;2024-01-30T02:57:36;101901.97;;;-0.17;72.47
84122;BME280;74217;51.106;17.084;2024-01-30T03:00:21;101899.44;;;-0.15;72.52
84122;BME280;74217;51.106;17.084;2024-01-30T03:03:06;101909.88;;;-0.12;72.31
84122;BME280;74217;51.106;17.084;2024-01-30T03:05:51;101901.00;;;-0.20;72.42
84122;BME280;74217;51.106;17.084;2024-01-30T03:08:36;101910.56;;;-0.18;71.65
84122;BME280;74217;51.106;17.084;2024-01-30T03:11:21;101896.72;;;-0.20;72.04
84122;BME280;74217;51.106;17.084;2024-01-30T03:14:06;101903.50;;;-0.25;72.69
84122;BME280;74217;51.106;17.084;2024-01-30T03:16:52;101901.84;;;-0.21;72.35
84122;BME280;74217;51.106;17.084;2024-01-30T03:19:37;101906.97;;;-0.23;72.86
84122;BME280;74217;51.106;17.084;2024-01-30T03:22:25;101904.38;;;-0.24;72.98
84122;BME280;74217;51.106;17.084;2024-01-30T03:25:10;101904.13;;;-0.33;72.71
84122;BME280;74217;51.106;17.084;2024-01-30T03:27:55;101900.78;;;-0.29;73.16
84122;BME280;74217;51.106;17.084;2024-01-30T03:30:40;101899.84;;;-0.33;73.10
84122;BME280;74217;51.106;17.084;2024-01-30T03:33:25;101888.44;;;-0.39;73.15
84122;BME280;74217;51.106;17.084;2024-01-30T03:36:11;101896.53;;;-0.27;73.47
84122;BME280;74217;51.106;17.084;2024-01-30T03:38:56;101880.09;;;-0.29;72.87
84122;BME280;74217;51.106;17.084;2024-01-30T03:41:43;101873.09;;;-0.33;73.00
84122;BME280;74217;51.106;17.084;2024-01-30T03:44:28;101880.91;;;-0.32;73.36
84122;BME280;74217;51.106;17.084;2024-01-30T03:47:13;101885.16;;;-0.34;73.64
84122;BME280;74217;51.106;17.084;2024-01-30T03:49:58;101885.19;;;-0.32;73.59
84122;BME280;74217;51.106;17.084;2024-01-30T03:52:42;101868.66;;;-0.39;73.35
84122;BME280;74217;51.106;17.084;2024-01-30T03:55:28;101866.19;;;-0.34;72.86
84122;BME280;74217;51.106;17.084;2024-01-30T03:58:12;101881.41;;;-0.45;73.62
84122;BME280;74217;51.106;17.084;2024-01-30T04:00:57;101884.47;;;-0.59;74.49
84122;BME280;74217;51.106;17.084;2024-01-30T04:03:42;101888.97;;;-0.52;74.60
84122;BME280;74217;51.106;17.084;2024-01-30T04:06:28;101888.13;;;-0.51;73.50
84122;BME280;74217;51.106;17.084;2024-01-30T04:09:13;101889.13;;;-0.46;73.34
84122;BME280;74217;51.106;17.084;2024-01-30T04:11:58;101887.44;;;-0.46;73.28
84122;BME280;74217;51.106;17.084;2024-01-30T04:14:42;101883.00;;;-0.50;73.09
84122;BME280;74217;51.106;17.084;2024-01-30T04:17:28;101881.38;;;-0.46;72.86
84122;BME280;74217;51.106;17.084;2024-01-30T04:20:17;101887.22;;;-0.53;73.26
84122;BME280;74217;51.106;17.084;2024-01-30T04:23:02;101889.81;;;-0.53;73.44
84122;BME280;74217;51.106;17.084;2024-01-30T04:25:47;101884.75;;;-0.49;73.14
84122;BME280;74217;51.106;17.084;2024-01-30T04:28:32;101889.72;;;-0.56;73.18
84122;BME280;74217;51.106;17.084;2024-01-30T04:31:17;101883.59;;;-0.60;73.80
84122;BME280;74217;51.106;17.084;2024-01-30T04:34:02;101863.47;;;-0.71;73.89
84122;BME280;74217;51.106;17.084;2024-01-30T04:36:46;101889.63;;;-0.59;72.76
84122;BME280;74217;51.106;17.084;2024-01-30T04:39:33;101892.25;;;-0.58;73.57
84122;BME280;74217;51.106;17.084;2024-01-30T04:42:17;101889.63;;;-0.59;73.79
84122;BME280;74217;51.106;17.084;2024-01-30T04:45:02;101894.84;;;-0.58;73.25
84122;BME280;74217;51.106;17.084;2024-01-30T04:47:46;101895.59;;;-0.62;73.36
84122;BME280;74217;51.106;17.084;2024-01-30T04:50:31;101891.25;;;-0.63;72.80
84122;BME280;74217;51.106;17.084;2024-01-30T04:53:16;101897.38;;;-0.59;73.27
84122;BME280;74217;51.106;17.084;2024-01-30T04:56:01;101889.50;;;-0.64;73.20
84122;BME280;74217;51.106;17.084;2024-01-30T04:58:46;101896.66;;;-0.55;73.88
84122;BME280;74217;51.106;17.084;2024-01-30T05:01:32;101899.41;;;-0.49;72.49
84122;BME280;74217;51.106;17.084;2024-01-30T05:04:16;101888.22;;;-0.48;71.83
84122;BME280;74217;51.106;17.084;2024-01-30T05:07:02;101891.53;;;-0.52;72.80
84122;BME280;74217;51.106;17.084;2024-01-30T05:09:47;101893.94;;;-0.60;73.31
84122;BME280;74217;51.106;17.084;2024-01-30T05:12:32;101900.06;;;-0.56;73.08
84122;BME280;74217;51.106;17.084;2024-01-30T05:15:16;101893.06;;;-0.60;73.55
84122;BME280;74217;51.106;17.084;2024-01-30T05:18:01;101898.22;;;-0.60;73.75
84122;BME280;74217;51.106;17.084;2024-01-30T05:20:46;101887.88;;;-0.60;73.25
84122;BME280;74217;51.106;17.084;2024-01-30T05:23:31;101903.41;;;-0.60;72.86
84122;BME280;74217;51.106;17.084;2024-01-30T05:26:16;101888.59;;;-0.66;72.93
84122;BME280;74217;51.106;17.084;2024-01-30T05:29:02;101891.72;;;-0.77;74.00
84122;BME280;74217;51.106;17.084;2024-01-30T05:31:46;101896.97;;;-0.74;74.35
84122;BME280;74217;51.106;17.084;2024-01-30T05:34:32;101896.53;;;-0.60;73.42
84122;BME280;74217;51.106;17.084;2024-01-30T05:37:17;101894.81;;;-0.59;73.33
84122;BME280;74217;51.106;17.084;2024-01-30T05:40:02;101888.91;;;-0.55;73.05
84122;BME280;74217;51.106;17.084;2024-01-30T05:42:48;101892.16;;;-0.61;73.45
84122;BME280;74217;51.106;17.084;2024-01-30T05:45:33;101892.97;;;-0.63;73.08
84122;BME280;74217;51.106;17.084;2024-01-30T05:48:19;101895.41;;;-0.68;73.73
84122;BME280;74217;51.106;17.084;2024-01-30T05:51:05;101899.63;;;-0.71;73.10
84122;BME280;74217;51.106;17.084;2024-01-30T05:53:50;101899.69;;;-0.70;73.47
84122;BME280;74217;51.106;17.084;2024-01-30T05:56:35;101903.06;;;-0.72;73.65
84122;BME280;74217;51.106;17.084;2024-01-30T05:59:20;101895.13;;;-0.78;74.19
84122;BME280;74217;51.106;17.084;2024-01-30T06:02:05;101905.28;;;-0.84;74.61
84122;BME280;74217;51.106;17.084;2024-01-30T06:04:50;101904.56;;;-0.80;74.74
84122;BME280;74217;51.106;17.084;2024-01-30T06:07:35;101908.84;;;-0.81;74.58
84122;BME280;74217;51.106;17.084;2024-01-30T06:10:20;101914.09;;;-0.78;73.88
84122;BME280;74217;51.106;17.084;2024-01-30T06:13:06;101910.56;;;-0.80;74.00
84122;BME280;74217;51.106;17.084;2024-01-30T06:15:50;101913.16;;;-0.81;73.60
84122;BME280;74217;51.106;17.084;2024-01-30T06:18:36;101912.44;;;-0.76;73.58
84122;BME280;74217;51.106;17.084;2024-01-30T06:21:21;101913.03;;;-0.84;73.94
84122;BME280;74217;51.106;17.084;2024-01-30T06:24:06;101910.50;;;-0.83;73.84
84122;BME280;74217;51.106;17.084;2024-01-30T06:26:51;101899.28;;;-0.83;73.99
84122;BME280;74217;51.106;17.084;2024-01-30T06:29:36;101906.31;;;-0.79;74.42
84122;BME280;74217;51.106;17.084;2024-01-30T06:32:21;101908.75;;;-0.84;74.23
84122;BME280;74217;51.106;17.084;2024-01-30T06:35:06;101911.53;;;-0.76;74.01
84122;BME280;74217;51.106;17.084;2024-01-30T06:37:50;101902.97;;;-0.75;73.50
84122;BME280;74217;51.106;17.084;2024-01-30T06:40:36;101895.97;;;-0.79;74.34
84122;BME280;74217;51.106;17.084;2024-01-30T06:43:22;101893.94;;;-0.89;74.78
84122;BME280;74217;51.106;17.084;2024-01-30T06:46:07;101912.25;;;-0.82;74.88
84122;BME280;74217;51.106;17.084;2024-01-30T06:48:52;101906.31;;;-0.79;74.98
84122;BME280;74217;51.106;17.084;2024-01-30T06:51:37;101911.34;;;-0.84;75.22
84122;BME280;74217;51.106;17.084;2024-01-30T06:54:21;101906.34;;;-0.78;74.57
84122;BME280;74217;51.106;17.084;2024-01-30T06:57:06;101901.31;;;-0.73;74.65
84122;BME280;74217;51.106;17.084;2024-01-30T06:59:56;101911.81;;;-0.67;74.51
84122;BME280;74217;51.106;17.084;2024-01-30T07:02:40;101909.22;;;-0.67;74.13
84122;BME280;74217;51.106;17.084;2024-01-30T07:05:25;101904.81;;;-0.71;74.68
84122;BME280;74217;51.106;17.084;2024-01-30T07:08:10;101914.22;;;-0.73;75.19
84122;BME280;74217;51.106;17.084;2024-01-30T07:10:55;101907.59;;;-0.64;75.42
84122;BME280;74217;51.106;17.084;2024-01-30T07:13:40;101906.19;;;-0.53;75.15
84122;BME280;74217;51.106;17.084;2024-01-30T07:16:25;101907.06;;;-0.52;74.68
84122;BME280;74217;51.106;17.084;2024-01-30T07:19:10;101905.31;;;-0.53;74.83
84122;BME280;74217;51.106;17.084;2024-01-30T07:21:54;101902.84;;;-0.49;75.06
84122;BME280;74217;51.106;17.084;2024-01-30T07:24:43;101906.53;;;-0.41;75.05
84122;BME280;74217;51.106;17.084;2024-01-30T07:27:29;101907.66;;;-0.31;74.56
84122;BME280;74217;51.106;17.084;2024-01-30T07:30:14;101906.19;;;-0.20;74.81
84122;BME280;74217;51.106;17.084;2024-01-30T07:33:00;101914.94;;;-0.15;74.35
84122;BME280;74217;51.106;17.084;2024-01-30T07:35:45;101909.97;;;-0.08;73.99
84122;BME280;74217;51.106;17.084;2024-01-30T07:38:34;101908.56;;;0.05;73.50
84122;BME280;74217;51.106;17.084;2024-01-30T07:41:19;101913.72;;;0.05;73.63
84122;BME280;74217;51.106;17.084;2024-01-30T07:44:03;101919.00;;;0.08;73.43
84122;BME280;74217;51.106;17.084;2024-01-30T07:46:48;101917.31;;;0.10;73.31
84122;BME280;74217;51.106;17.084;2024-01-30T07:49:33;101922.59;;;0.13;73.51
84122;BME280;74217;51.106;17.084;2024-01-30T07:52:18;101921.03;;;0.21;74.03
84122;BME280;74217;51.106;17.084;2024-01-30T07:55:03;101912.63;;;0.29;73.60
84122;BME280;74217;51.106;17.084;2024-01-30T07:57:48;101922.34;;;0.38;73.35
84122;BME280;74217;51.106;17.084;2024-01-30T08:00:33;101913.97;;;0.49;73.83
84122;BME280;74217;51.106;17.084;2024-01-30T08:03:17;101920.97;;;0.53;73.34
84122;BME280;74217;51.106;17.084;2024-01-30T08:06:03;101908.19;;;0.61;73.55
84122;BME280;74217;51.106;17.084;2024-01-30T08:08:47;101912.66;;;0.68;73.56
84122;BME280;74217;51.106;17.084;2024-01-30T08:11:31;101922.41;;;0.78;73.38
84122;BME280;74217;51.106;17.084;2024-01-30T08:14:16;101906.19;;;0.86;73.12
84122;BME280;74217;51.106;17.084;2024-01-30T08:17:00;101913.44;;;1.02;73.71
84122;BME280;74217;51.106;17.084;2024-01-30T08:19:45;101907.81;;;1.23;73.19
84122;BME280;74217;51.106;17.084;2024-01-30T08:22:29;101906.44;;;1.40;75.22
84122;BME280;74217;51.106;17.084;2024-01-30T08:25:14;101903.25;;;1.53;73.75
84122;BME280;74217;51.106;17.084;2024-01-30T08:27:59;101895.91;;;1.77;71.97
84122;BME280;74217;51.106;17.084;2024-01-30T08:30:44;101898.88;;;1.98;70.84
84122;BME280;74217;51.106;17.084;2024-01-30T08:33:29;101891.44;;;2.20;70.77
84122;BME280;74217;51.106;17.084;2024-01-30T08:36:13;101892.75;;;2.48;68.62
84122;BME280;74217;51.106;17.084;2024-01-30T08:38:58;101897.44;;;2.70;68.66
84122;BME280;74217;51.106;17.084;2024-01-30T08:41:43;101893.38;;;2.87;68.10
84122;BME280;74217;51.106;17.084;2024-01-30T08:44:27;101890.28;;;3.18;75.06
84122;BME280;74217;51.106;17.084;2024-01-30T08:47:12;101885.28;;;3.33;70.07
84122;BME280;74217;51.106;17.084;2024-01-30T08:49:56;101889.03;;;3.56;67.38
84122;BME280;74217;51.106;17.084;2024-01-30T08:52:41;101877.88;;;3.68;65.14
84122;BME280;74217;51.106;17.084;2024-01-30T08:55:25;101884.09;;;3.82;64.38
84122;BME280;74217;51.106;17.084;2024-01-30T08:58:10;101884.09;;;3.85;64.88
84122;BME280;74217;51.106;17.084;2024-01-30T09:00:54;101886.84;;;4.00;64.73
84122;BME280;74217;51.106;17.084;2024-01-30T09:03:39;101885.19;;;4.10;63.38
84122;BME280;74217;51.106;17.084;2024-01-30T09:06:25;101887.00;;;4.20;63.10
84122;BME280;74217;51.106;17.084;2024-01-30T09:09:12;101881.84;;;4.23;65.08
84122;BME280;74217;51.106;17.084;2024-01-30T09:11:56;101884.63;;;4.47;67.15
84122;BME280;74217;51.106;17.084;2024-01-30T09:14:46;101875.09;;;4.50;61.62
84122;BME280;74217;51.106;17.084;2024-01-30T09:17:30;101882.94;;;4.59;62.90
84122;BME280;74217;51.106;17.084;2024-01-30T09:20:15;101874.34;;;4.69;59.70
84122;BME280;74217;51.106;17.084;2024-01-30T09:23:00;101880.50;;;4.85;61.84
84122;BME280;74217;51.106;17.084;2024-01-30T09:25:45;101868.41;;;4.96;62.25
84122;BME280;74217;51.106;17.084;2024-01-30T09:28:29;101862.31;;;5.04;59.29
84122;BME280;74217;51.106;17.084;2024-01-30T09:31:15;101868.47;;;5.12;59.79
84122;BME280;74217;51.106;17.084;2024-01-30T09:33:59;101860.69;;;5.21;61.95
84122;BME280;74217;51.106;17.084;2024-01-30T09:36:43;101857.25;;;5.28;60.06
84122;BME280;74217;51.106;17.084;2024-01-30T09:39:27;101860.78;;;5.51;58.06
84122;BME280;74217;51.106;17.084;2024-01-30T09:45:10;101863.41;;;5.60;56.93
84122;BME280;74217;51.106;17.084;2024-01-30T09:47:59;101848.59;;;5.53;57.45
84122;BME280;74217;51.106;17.084;2024-01-30T09:50:43;101852.09;;;5.58;57.79
84122;BME280;74217;51.106;17.084;2024-01-30T09:53:28;101845.16;;;5.72;55.94
84122;BME280;74217;51.106;17.084;2024-01-30T09:56:13;101846.91;;;5.78;56.76
84122;BME280;74217;51.106;17.084;2024-01-30T09:58:58;101836.44;;;5.79;56.01
84122;BME280;74217;51.106;17.084;2024-01-30T10:01:43;101841.69;;;6.03;58.78
84122;BME280;74217;51.106;17.084;2024-01-30T10:04:28;101836.47;;;6.06;56.21
84122;BME280;74217;51.106;17.084;2024-01-30T10:07:14;101830.38;;;6.25;56.61
84122;BME280;74217;51.106;17.084;2024-01-30T10:09:59;101832.97;;;6.37;55.82
84122;BME280;74217;51.106;17.084;2024-01-30T10:12:43;101817.28;;;6.37;55.43
84122;BME280;74217;51.106;17.084;2024-01-30T10:15:28;101816.41;;;6.40;52.99
84122;BME280;74217;51.106;17.084;2024-01-30T10:18:12;101818.97;;;6.62;54.39
84122;BME280;74217;51.106;17.084;2024-01-30T10:20:59;101805.94;;;6.52;52.89
84122;BME280;74217;51.106;17.084;2024-01-30T10:23:44;101805.03;;;6.57;53.21
84122;BME280;74217;51.106;17.084;2024-01-30T10:26:31;101810.22;;;6.66;56.58
84122;BME280;74217;51.106;17.084;2024-01-30T10:29:18;101802.41;;;6.65;54.24
84122;BME280;74217;51.106;17.084;2024-01-30T10:32:06;101808.38;;;6.88;57.06
84122;BME280;74217;51.106;17.084;2024-01-30T10:34:51;101804.00;;;6.94;53.21
84122;BME280;74217;51.106;17.084;2024-01-30T10:37:36;101809.22;;;7.03;56.98
84122;BME280;74217;51.106;17.084;2024-01-30T10:40:21;101794.31;;;7.20;54.33
84122;BME280;74217;51.106;17.084;2024-01-30T10:43:10;101799.53;;;7.28;56.17
84122;BME280;74217;51.106;17.084;2024-01-30T10:46:06;101802.06;;;7.35;53.41
84122;BME280;74217;51.106;17.084;2024-01-30T10:49:18;101805.50;;;7.45;52.47
84122;BME280;74217;51.106;17.084;2024-01-30T10:52:05;101790.75;;;7.36;52.72
84122;BME280;74217;51.106;17.084;2024-01-30T10:54:51;101787.25;;;7.37;53.61
84122;BME280;74217;51.106;17.084;2024-01-30T10:57:37;101781.97;;;7.40;55.69
84122;BME280;74217;51.106;17.084;2024-01-30T11:00:22;101776.72;;;7.43;52.68
84122;BME280;74217;51.106;17.084;2024-01-30T11:03:08;101779.25;;;7.52;52.32
84122;BME280;74217;51.106;17.084;2024-01-30T11:05:53;101772.22;;;7.60;54.46
84122;BME280;74217;51.106;17.084;2024-01-30T11:08:37;101773.97;;;7.58;50.66
84122;BME280;74217;51.106;17.084;2024-01-30T11:11:22;101773.88;;;7.72;52.11
84122;BME280;74217;51.106;17.084;2024-01-30T11:14:09;101764.25;;;7.74;49.70
84122;BME280;74217;51.106;17.084;2024-01-30T11:16:57;101746.59;;;7.95;52.65
84122;BME280;74217;51.106;17.084;2024-01-30T11:19:42;101757.81;;;8.11;52.87
84122;BME280;74217;51.106;17.084;2024-01-30T11:22:30;101729.00;;;8.08;49.50
84122;BME280;74217;51.106;17.084;2024-01-30T11:25:16;101757.63;;;8.27;58.97
84122;BME280;74217;51.106;17.084;2024-01-30T11:28:01;101747.19;;;8.23;47.07
84122;BME280;74217;51.106;17.084;2024-01-30T11:30:45;101740.28;;;8.17;48.84
84122;BME280;74217;51.106;17.084;2024-01-30T11:33:31;101744.63;;;8.18;47.25
84122;BME280;74217;51.106;17.084;2024-01-30T11:36:17;101740.97;;;8.31;51.46
84122;BME280;74217;51.106;17.084;2024-01-30T11:39:02;101733.06;;;8.36;51.45
84122;BME280;74217;51.106;17.084;2024-01-30T11:41:48;101726.78;;;8.50;49.93
84122;BME280;74217;51.106;17.084;2024-01-30T11:44:34;101730.19;;;8.58;49.14
84122;BME280;74217;51.106;17.084;2024-01-30T11:47:19;101726.53;;;8.71;50.58
84122;BME280;74217;51.106;17.084;2024-01-30T11:50:04;101710.59;;;8.86;49.18
84122;BME280;74217;51.106;17.084;2024-01-30T11:52:50;101714.88;;;8.93;50.14
84122;BME280;74217;51.106;17.084;2024-01-30T11:55:35;101716.63;;;8.91;45.51
84122;BME280;74217;51.106;17.084;2024-01-30T11:58:24;101707.19;;;8.78;48.01
84122;BME280;74217;51.106;17.084;2024-01-30T12:01:10;101706.34;;;8.78;46.85
84122;BME280;74217;51.106;17.084;2024-01-30T12:03:55;101696.59;;;8.87;44.93
84122;BME280;74217;51.106;17.084;2024-01-30T12:06:41;101701.81;;;8.89;48.23
84122;BME280;74217;51.106;17.084;2024-01-30T12:09:25;101692.91;;;8.97;48.74
84122;BME280;74217;51.106;17.084;2024-01-30T12:12:12;101698.06;;;9.06;46.28
84122;BME280;74217;51.106;17.084;2024-01-30T12:14:57;101691.91;;;9.09;45.62
84122;BME280;74217;51.106;17.084;2024-01-30T12:17:42;101689.22;;;9.10;44.22
84122;BME280;74217;51.106;17.084;2024-01-30T12:20:26;101684.91;;;9.08;45.21
84122;BME280;74217;51.106;17.084;2024-01-30T12:23:12;101685.81;;;9.05;45.49
84122;BME280;74217;51.106;17.084;2024-01-30T12:25:57;101680.66;;;8.99;46.05
84122;BME280;74217;51.106;17.084;2024-01-30T12:28:49;101679.53;;;9.15;49.71
84122;BME280;74217;51.106;17.084;2024-01-30T12:31:36;101679.50;;;9.18;48.13
84122;BME280;74217;51.106;17.084;2024-01-30T12:34:21;101665.66;;;9.07;48.68
84122;BME280;74217;51.106;17.084;2024-01-30T12:37:06;101669.91;;;9.14;44.90
84122;BME280;74217;51.106;17.084;2024-01-30T12:39:54;101666.81;;;8.88;43.42
84122;BME280;74217;51.106;17.084;2024-01-30T12:42:38;101660.94;;;8.71;46.16
84122;BME280;74217;51.106;17.084;2024-01-30T12:45:23;101657.28;;;8.83;48.20
84122;BME280;74217;51.106;17.084;2024-01-30T12:48:08;101660.94;;;8.71;47.35
84122;BME280;74217;51.106;17.084;2024-01-30T12:50:53;101648.84;;;8.60;46.52
84122;BME280;74217;51.106;17.084;2024-01-30T12:53:37;101655.69;;;8.71;54.55
84122;BME280;74217;51.106;17.084;2024-01-30T12:56:22;101647.94;;;8.62;47.47
84122;BME280;74217;51.106;17.084;2024-01-30T12:59:06;101660.09;;;8.68;48.78
84122;BME280;74217;51.106;17.084;2024-01-30T13:01:51;101653.25;;;8.56;47.44
84122;BME280;74217;51.106;17.084;2024-01-30T13:04:35;101658.66;;;8.41;46.93
84122;BME280;74217;51.106;17.084;2024-01-30T13:07:21;101662.09;;;8.48;50.75
84122;BME280;74217;51.106;17.084;2024-01-30T13:10:05;101656.91;;;8.43;49.45
84122;BME280;74217;51.106;17.084;2024-01-30T13:12:50;101657.81;;;8.41;58.74
84122;BME280;74217;51.106;17.084;2024-01-30T13:15:34;101655.28;;;8.36;48.16
84122;BME280;74217;51.106;17.084;2024-01-30T13:18:19;101650.13;;;8.27;52.50
84122;BME280;74217;51.106;17.084;2024-01-30T13:21:03;101640.53;;;8.25;50.68
84122;BME280;74217;51.106;17.084;2024-01-30T13:23:48;101646.81;;;8.13;55.12
84122;BME280;74217;51.106;17.084;2024-01-30T13:26:37;101637.41;;;7.94;48.15
84122;BME280;74217;51.106;17.084;2024-01-30T13:29:22;101642.47;;;8.11;48.73
84122;BME280;74217;51.106;17.084;2024-01-30T13:32:06;101639.06;;;8.01;49.93
84122;BME280;74217;51.106;17.084;2024-01-30T13:34:51;101639.34;;;7.77;48.37
84122;BME280;74217;51.106;17.084;2024-01-30T13:37:35;101635.06;;;7.70;48.62
84122;BME280;74217;51.106;17.084;2024-01-30T13:40:20;101637.84;;;7.52;47.80
84122;BME280;74217;51.106;17.084;2024-01-30T13:43:06;101647.53;;;7.41;48.96
84122;BME280;74217;51.106;17.084;2024-01-30T13:45:51;101649.22;;;7.51;54.62
84122;BME280;74217;51.106;17.084;2024-01-30T13:48:36;101644.00;;;7.48;50.63
84122;BME280;74217;51.106;17.084;2024-01-30T13:51:20;101644.06;;;7.41;50.17
84122;BME280;74217;51.106;17.084;2024-01-30T13:54:04;101640.72;;;7.25;51.45
84122;BME280;74217;51.106;17.084;2024-01-30T13:56:49;101647.72;;;7.20;51.14
84122;BME280;74217;51.106;17.084;2024-01-30T13:59:34;101633.91;;;7.06;51.47
84122;BME280;74217;51.106;17.084;2024-01-30T14:02:18;101639.09;;;7.12;52.42
84122;BME280;74217;51.106;17.084;2024-01-30T14:05:03;101632.03;;;7.23;54.66
84122;BME280;74217;51.106;17.084;2024-01-30T14:07:49;101635.44;;;7.28;52.41
84122;BME280;74217;51.106;17.084;2024-01-30T14:10:34;101642.50;;;7.20;51.92
84122;BME280;74217;51.106;17.084;2024-01-30T14:13:19;101638.88;;;7.36;56.28
84122;BME280;74217;51.106;17.084;2024-01-30T14:16:03;101635.31;;;7.42;52.85
84122;BME280;74217;51.106;17.084;2024-01-30T14:18:48;101627.53;;;7.34;51.80
84122;BME280;74217;51.106;17.084;2024-01-30T14:21:33;101624.03;;;7.37;53.90